sensor_id;sensor_type;location;lat;lon;timestamp;pressure;altitude;pressure_sealevel;temperature;humidity
86212;BME280;76867;47.634;8.270;2024-03-23T00:53:25;97347.09;;;6.85;77.44
86212;BME280;76867;47.634;8.270;2024-03-23T01:03:26;97340.75;;;6.69;77.53
86212;BME280;76867;47.634;8.270;2024-03-23T01:13:26;97321.19;;;6.76;77.53
86212;BME280;76867;47.634;8.270;2024-03-23T01:23:27;97307.31;;;6.65;78.43
86212;BME280;76867;47.634;8.270;2024-03-23T01:33:27;97305.72;;;6.76;78.21
86212;BME280;76867;47.634;8.270;2024-03-23T01:43:27;97297.94;;;6.74;77.88
86212;BME280;76867;47.634;8.270;2024-03-23T01:53:28;97268.66;;;6.80;76.82
86212;BME280;76867;47.634;8.270;2024-03-23T02:03:28;97254.31;;;6.80;77.13
86212;BME280;76867;47.634;8.270;2024-03-23T02:13:28;97247.31;;;6.79;78.09
86212;BME280;76867;47.634;8.270;2024-03-23T02:23:29;97224.91;;;6.94;76.75
86212;BME280;76867;47.634;8.270;2024-03-23T02:33:29;97206.72;;;6.82;77.40
86212;BME280;76867;47.634;8.270;2024-03-23T02:43:29;97203.34;;;6.85;77.60
86212;BME280;76867;47.634;8.270;2024-03-23T02:53:29;97203.94;;;6.79;78.14
86212;BME280;76867;47.634;8.270;2024-03-23T03:03:30;97189.13;;;6.76;78.16
86212;BME280;76867;47.634;8.270;2024-03-23T03:13:30;97185.88;;;6.70;78.95
86212;BME280;76867;47.634;8.270;2024-03-23T03:23:30;97175.22;;;6.78;78.80
86212;BME280;76867;47.634;8.270;2024-03-23T03:33:30;97153.97;;;6.80;78.26
86212;BME280;76867;47.634;8.270;2024-03-23T03:43:31;97138.06;;;6.66;79.45
86212;BME280;76867;47.634;8.270;2024-03-23T03:53:31;97110.13;;;6.78;79.01
86212;BME280;76867;47.634;8.270;2024-03-23T04:03:31;97095.84;;;6.65;79.10
86212;BME280;76867;47.634;8.270;2024-03-23T04:13:31;97067.13;;;6.64;79.58
86212;BME280;76867;47.634;8.270;2024-03-23T04:23:32;97050.16;;;6.67;79.39
86212;BME280;76867;47.634;8.270;2024-03-23T04:33:32;97032.00;;;6.67;79.36
86212;BME280;76867;47.634;8.270;2024-03-23T04:43:32;97033.91;;;6.67;79.80
86212;BME280;76867;47.634;8.270;2024-03-23T04:53:33;97105.94;;;7.08;85.17
86212;BME280;76867;47.634;8.270;2024-03-23T05:03:33;97099.25;;;7.81;84.18
86212;BME280;76867;47.634;8.270;2024-03-23T05:13:33;97111.75;;;8.72;87.43
86212;BME280;76867;47.634;8.270;2024-03-23T05:23:33;97091.13;;;8.91;89.24
86212;BME280;76867;47.634;8.270;2024-03-23T05:33:33;97105.72;;;9.22;89.61
86212;BME280;76867;47.634;8.270;2024-03-23T05:43:34;97106.06;;;10.12;78.68
86212;BME280;76867;47.634;8.270;2024-03-23T05:53:34;97122.97;;;9.98;79.41
86212;BME280;76867;47.634;8.270;2024-03-23T06:03:35;97137.78;;;9.97;77.13
86212;BME280;76867;47.634;8.270;2024-03-23T06:13:36;97156.06;;;9.74;78.51
86212;BME280;76867;47.634;8.270;2024-03-23T06:23:36;97157.19;;;9.96;77.43
86212;BME280;76867;47.634;8.270;2024-03-23T06:33:37;97193.41;;;9.96;77.38
86212;BME280;76867;47.634;8.270;2024-03-23T06:43:37;97197.97;;;10.12;76.20
86212;BME280;76867;47.634;8.270;2024-03-23T06:53:37;97206.41;;;10.03;77.32
86212;BME280;76867;47.634;8.270;2024-03-23T07:03:38;97210.25;;;10.02;78.85
86212;BME280;76867;47.634;8.270;2024-03-23T07:13:38;97237.47;;;9.98;80.26
86212;BME280;76867;47.634;8.270;2024-03-23T07:23:42;97242.72;;;10.10;78.24
86212;BME280;76867;47.634;8.270;2024-03-23T07:33:46;97276.06;;;10.00;78.75
86212;BME280;76867;47.634;8.270;2024-03-23T07:43:47;97318.97;;;10.46;77.18
86212;BME280;76867;47.634;8.270;2024-03-23T07:53:48;97381.53;;;9.41;76.67
86212;BME280;76867;47.634;8.270;2024-03-23T08:03:49;97448.59;;;8.98;78.80
86212;BME280;76867;47.634;8.270;2024-03-23T08:13:49;97475.44;;;8.40;82.06
86212;BME280;76867;47.634;8.270;2024-03-23T08:23:49;97511.66;;;8.44;81.01
86212;BME280;76867;47.634;8.270;2024-03-23T08:33:50;97532.28;;;8.33;80.70
86212;BME280;76867;47.634;8.270;2024-03-23T08:43:50;97521.84;;;8.75;74.66
86212;BME280;76867;47.634;8.270;2024-03-23T08:53:51;97547.63;;;8.94;73.14
86212;BME280;76867;47.634;8.270;2024-03-23T09:03:51;97550.63;;;9.05;71.86
86212;BME280;76867;47.634;8.270;2024-03-23T09:13:52;97533.69;;;9.43;70.17
86212;BME280;76867;47.634;8.270;2024-03-23T09:23:53;97531.63;;;9.87;60.47
86212;BME280;76867;47.634;8.270;2024-03-23T09:33:53;97523.63;;;9.79;51.58
86212;BME280;76867;47.634;8.270;2024-03-23T09:43:54;97545.31;;;10.07;51.47
86212;BME280;76867;47.634;8.270;2024-03-23T09:53:54;97551.53;;;10.07;51.75
86212;BME280;76867;47.634;8.270;2024-03-23T10:03:54;97554.97;;;10.04;48.47
86212;BME280;76867;47.634;8.270;2024-03-23T10:13:55;97547.38;;;10.29;48.64
86212;BME280;76867;47.634;8.270;2024-03-23T10:24:07;97547.19;;;10.58;45.96
86212;BME280;76867;47.634;8.270;2024-03-23T10:34:08;97530.81;;;10.58;44.52
86212;BME280;76867;47.634;8.270;2024-03-23T10:44:09;97531.38;;;10.86;43.22
86212;BME280;76867;47.634;8.270;2024-03-23T10:54:10;97546.50;;;11.03;42.12
86212;BME280;76867;47.634;8.270;2024-03-23T11:04:37;97576.25;;;10.89;43.89
86212;BME280;76867;47.634;8.270;2024-03-23T11:14:43;97552.88;;;11.11;44.04
86212;BME280;76867;47.634;8.270;2024-03-23T11:24:50;97561.91;;;12.33;41.47
86212;BME280;76867;47.634;8.270;2024-03-23T11:34:50;97601.84;;;10.81;42.49
86212;BME280;76867;47.634;8.270;2024-03-23T11:44:50;97611.44;;;10.55;47.48
86212;BME280;76867;47.634;8.270;2024-03-23T11:54:50;97739.97;;;8.28;64.88
86212;BME280;76867;47.634;8.270;2024-03-23T12:04:51;97700.28;;;6.70;73.42
86212;BME280;76867;47.634;8.270;2024-03-23T12:15:04;97687.00;;;7.77;68.21
86212;BME280;76867;47.634;8.270;2024-03-23T12:25:06;97655.28;;;8.67;62.48
86212;BME280;76867;47.634;8.270;2024-03-23T12:35:06;97631.06;;;9.62;63.53
86212;BME280;76867;47.634;8.270;2024-03-23T12:45:08;97609.03;;;9.83;59.52
86212;BME280;76867;47.634;8.270;2024-03-23T12:55:09;97571.72;;;10.03;52.43
86212;BME280;76867;47.634;8.270;2024-03-23T13:05:09;97566.25;;;10.03;50.38
86212;BME280;76867;47.634;8.270;2024-03-23T13:15:09;97585.34;;;9.71;54.57
86212;BME280;76867;47.634;8.270;2024-03-23T13:25:09;97560.56;;;10.27;55.38
86212;BME280;76867;47.634;8.270;2024-03-23T13:35:10;97563.78;;;10.68;51.55
86212;BME280;76867;47.634;8.270;2024-03-23T13:45:10;97555.44;;;9.91;59.27
86212;BME280;76867;47.634;8.270;2024-03-23T13:55:12;97539.75;;;9.36;58.31
86212;BME280;76867;47.634;8.270;2024-03-23T14:05:15;97538.06;;;9.32;59.60
86212;BME280;76867;47.634;8.270;2024-03-23T14:15:15;97512.72;;;10.49;49.61
86212;BME280;76867;47.634;8.270;2024-03-23T14:25:16;97499.53;;;11.40;43.65
86212;BME280;76867;47.634;8.270;2024-03-23T14:35:16;97492.16;;;10.75;41.63
86212;BME280;76867;47.634;8.270;2024-03-23T14:45:17;97483.97;;;10.75;35.40
86212;BME280;76867;47.634;8.270;2024-03-23T14:55:17;97486.94;;;10.27;36.75
86212;BME280;76867;47.634;8.270;2024-03-23T15:05:18;97487.31;;;10.45;38.38
86212;BME280;76867;47.634;8.270;2024-03-23T15:15:18;97495.06;;;9.88;38.60
86212;BME280;76867;47.634;8.270;2024-03-23T15:25:18;97490.91;;;9.43;42.87
86212;BME280;76867;47.634;8.270;2024-03-23T15:35:18;97479.25;;;9.27;42.86
86212;BME280;76867;47.634;8.270;2024-03-23T15:45:21;97506.53;;;9.15;42.29
86212;BME280;76867;47.634;8.270;2024-03-23T15:55:22;97478.25;;;8.88;44.11
86212;BME280;76867;47.634;8.270;2024-03-23T16:05:22;97464.03;;;8.94;45.20
86212;BME280;76867;47.634;8.270;2024-03-23T16:15:22;97464.38;;;8.77;42.88
86212;BME280;76867;47.634;8.270;2024-03-23T16:25:23;97481.59;;;8.53;45.29
86212;BME280;76867;47.634;8.270;2024-03-23T16:35:24;97478.72;;;8.05;52.97
86212;BME280;76867;47.634;8.270;2024-03-23T16:45:25;97475.06;;;8.01;53.14
86212;BME280;76867;47.634;8.270;2024-03-23T16:55:25;97470.44;;;8.02;50.17
86212;BME280;76867;47.634;8.270;2024-03-23T17:05:25;97440.91;;;8.00;49.32
86212;BME280;76867;47.634;8.270;2024-03-23T17:15:26;97492.00;;;7.46;57.53
86212;BME280;76867;47.634;8.270;2024-03-23T17:25:26;97509.06;;;6.64;64.04
86212;BME280;76867;47.634;8.270;2024-03-23T17:35:27;97558.91;;;6.17;69.23
86212;BME280;76867;47.634;8.270;2024-03-23T17:45:27;97567.84;;;5.79;69.77
86212;BME280;76867;47.634;8.270;2024-03-23T17:55:27;97611.41;;;5.27;74.59
86212;BME280;76867;47.634;8.270;2024-03-23T18:05:28;97581.91;;;4.53;76.35
86212;BME280;76867;47.634;8.270;2024-03-23T18:15:28;97559.63;;;4.64;78.18
86212;BME280;76867;47.634;8.270;2024-03-23T18:25:28;97548.81;;;4.64;77.17
86212;BME280;76867;47.634;8.270;2024-03-23T18:35:29;97548.47;;;4.92;75.56
86212;BME280;76867;47.634;8.270;2024-03-23T18:45:29;97571.19;;;6.15;71.59
86212;BME280;76867;47.634;8.270;2024-03-23T18:55:31;97567.69;;;5.08;75.00
86212;BME280;76867;47.634;8.270;2024-03-23T19:05:31;97548.28;;;5.06;78.75
86212;BME280;76867;47.634;8.270;2024-03-23T19:15:32;97556.88;;;5.08;74.49
86212;BME280;76867;47.634;8.270;2024-03-23T19:25:32;97549.69;;;5.12;73.40
86212;BME280;76867;47.634;8.270;2024-03-23T19:35:33;97551.13;;;5.09;73.31
86212;BME280;76867;47.634;8.270;2024-03-23T19:45:33;97525.19;;;5.08;74.15
86212;BME280;76867;47.634;8.270;2024-03-23T19:55:37;97527.88;;;5.17;71.97
86212;BME280;76867;47.634;8.270;2024-03-23T20:05:37;97553.28;;;5.33;72.83
86212;BME280;76867;47.634;8.270;2024-03-23T20:15:38;97580.47;;;4.90;75.45
86212;BME280;76867;47.634;8.270;2024-03-23T20:25:38;97567.47;;;4.31;79.21
86212;BME280;76867;47.634;8.270;2024-03-23T20:35:48;97587.16;;;4.06;82.68
86212;BME280;76867;47.634;8.270;2024-03-23T20:45:59;97580.47;;;4.03;81.75
86212;BME280;76867;47.634;8.270;2024-03-23T20:56:00;97563.75;;;3.92;82.58
86212;BME280;76867;47.634;8.270;2024-03-23T21:06:00;97570.56;;;3.81;83.33
86212;BME280;76867;47.634;8.270;2024-03-23T21:16:03;97556.59;;;3.88;84.63
86212;BME280;76867;47.634;8.270;2024-03-23T21:26:05;97559.78;;;3.90;83.78
86212;BME280;76867;47.634;8.270;2024-03-23T21:36:05;97564.25;;;4.03;84.38
86212;BME280;76867;47.634;8.270;2024-03-23T21:46:06;97543.47;;;4.21;83.20
86212;BME280;76867;47.634;8.270;2024-03-23T21:56:08;97528.38;;;4.29;81.04
86212;BME280;76867;47.634;8.270;2024-03-23T22:06:08;97507.69;;;4.33;81.70
86212;BME280;76867;47.634;8.270;2024-03-23T22:16:08;97479.41;;;4.30;82.66
86212;BME280;76867;47.634;8.270;2024-03-23T22:26:09;97478.78;;;4.24;83.30
86212;BME280;76867;47.634;8.270;2024-03-23T22:36:09;97468.97;;;4.20;83.90
86212;BME280;76867;47.634;8.270;2024-03-23T22:46:09;97466.91;;;4.17;84.24
86212;BME280;76867;47.634;8.270;2024-03-23T22:56:09;97453.22;;;4.22;83.52
86212;BME280;76867;47.634;8.270;2024-03-23T23:06:10;97432.53;;;4.35;83.24
86212;BME280;76867;47.634;8.270;2024-03-23T23:16:10;97423.34;;;4.27;82.39
86212;BME280;76867;47.634;8.270;2024-03-23T23:26:10;97435.13;;;4.22;84.73
86212;BME280;76867;47.634;8.270;2024-03-23T23:36:10;97409.22;;;4.13;83.52
86212;BME280;76867;47.634;8.270;2024-03-23T23:46:11;97393.16;;;4.16;84.88
86212;BME280;76867;47.634;8.270;2024-03-23T23:56:11;97381.06;;;4.31;85.60
